D50

Crosby Municipal Airport

Crosby, North Dakota, USA
METAR KD50 251755Z AUTO 22019KT 10SM CLR 15/M01 A2984 RMK AO2
Observed Flight Rules
Apr-25 @ 17:55 UTC (25 minutes ago) Visual Flight Rules
Wind Visibility Clouds
220° at 19 knots 10 miles
  • Clear skies
Temperatures Readings
Current 15°C / 59°F
Dewpoint -1°C / 30°F
Humidity 34%
Altimeter 29.84" Hg
Pressure 1010 hPa
Elevation 595
METAR KD50 251755Z AUTO 22019KT 10SM CLR 15/M01 A2984 RMK AO2
Observed Flight Rules
Apr-25 @ 17:55 UTC
(25 minutes ago)
VFR
Wind Visibility
220° at 19 knots 10 miles
Clouds
  • Clear skies
Temperature Dewpoint
15°C / 59°F -1°C / 30°F
Humidity Altimeter Pressure
34% 29.84" Hg 1010 hPa